Aérodrome :
LOGIN :

S'inscrire | Disclaimer

   EN    FR    IT 

 










Légende :    VFR   VFR Marginal   IFR   IFR Intensif   IFR Très Intensif
Visi : 
Plafond : 
>= 8 km
>= 3000ft
5 à 8 km
1000 à 3000 ft
1500m à 5 km
500 à 1000 ft
800 à 1500m
200 à 500 ft
< 800m
< 200 ft
Symboles :   Orages  Brouillard  Fortes neiges  Fortes précipitations  Vent > 20 kt
SIGMETs :   Divers  Orages  Givrage  Turbulence  Onde Orograph.  Cendres Volcan.






- Altitude de l'aérodrome : 1273 ft
- Code IATA : LJU


LJLJ - Ljubljana

DERNIER METAR :
  • 072330Z 33001KT CAVOK 00/M05 Q1031 NOSIG

METARs EXPIRÉS :
  • 072300Z 26004KT CAVOK 01/M04 Q1031 NOSIG
  • 072230Z VRB02KT CAVOK 01/M05 Q1031 NOSIG
  • 072200Z 30001KT CAVOK 02/M04 Q1031 NOSIG
  • 072130Z 29006KT CAVOK 03/M04 Q1031 NOSIG
  • 072100Z 30005KT CAVOK 03/M04 Q1031 NOSIG

TAF TAF LJLJ
Valide du 08 à 00h jusqu'au 09 à 00h UTC


072300Z 0800/0824 30004KT CAVOK
TEMPO 0811/0816 11010KT



MET'MAP, la Météo Aéronautique d'un coup d'oeil ! - Copyright ORBIFLY Décembre 2007 - Disclaimer

ORBIFLY MET'MAP TEAM :

Programmation & Développement : Alexandra Zaïnal
Sur une idée originale de : Baudouin d'Aumeries
Assistance à la programmation : Marc-Olivier Méhu
Soutien technique & logistique : Manuel Goepfert

Contact : metmap@orbifly.com




SOURCES & CREDITS :

   NOAA